Time;durP1;ratioP1;P1;durP2;ratioP2;P2;SDS_P1;SDS_P2;PMS_P1;PMS_P2;Temp;Humidity;BMP_temperature;BMP_pressure;BME280_temperature;BME280_humidity;BME280_pressure;Samples;Min_cycle;Max_cycle;Signal;HPM_P1;HPM_P2
2022/01/12 00:00:29;;;;;;;6.67;1.50;;;29.30;86.80;;;;;;5089107;28;20459;-76
2022/01/12 00:02:56;;;;;;;4.70;1.35;;;29.50;87.80;;;;;;5087557;28;20411;-77
2022/01/12 00:05:23;;;;;;;5.38;1.40;;;29.50;85.70;;;;;;5088976;28;20452;-80
2022/01/12 00:07:51;;;;;;;5.43;1.60;;;29.50;84.50;;;;;;5088787;28;20456;-81
2022/01/12 00:10:19;;;;;;;5.38;1.45;;;29.60;86.20;;;;;;5088767;28;20372;-76
2022/01/12 00:12:46;;;;;;;4.97;1.23;;;29.80;85.20;;;;;;5088725;28;20809;-82
2022/01/12 00:15:15;;;;;;;5.63;1.40;;;30.20;81.40;;;;;;5088677;28;20464;-79
2022/01/12 00:17:43;;;;;;;5.35;1.35;;;30.30;78.40;;;;;;5088501;28;20373;-80
2022/01/12 00:20:10;;;;;;;7.30;1.40;;;30.40;77.90;;;;;;5088698;28;20874;-79
2022/01/12 00:22:39;;;;;;;4.22;1.25;;;30.50;78.70;;;;;;5088508;28;20924;-79
2022/01/12 00:33:14;;;;;;;4.55;1.10;;;31.00;72.30;;;;;;5076728;28;21000;-82
2022/01/12 00:35:43;;;;;;;5.75;1.40;;;30.80;72.40;;;;;;5087868;28;20461;-80
2022/01/12 00:38:11;;;;;;;5.10;1.30;;;30.60;74.60;;;;;;5087816;28;20760;-80
2022/01/12 00:40:47;;;;;;;5.10;1.25;;;30.50;73.60;;;;;;5087748;28;20403;-80
2022/01/12 00:43:15;;;;;;;3.72;1.27;;;30.40;75.10;;;;;;5088192;28;20763;-84
2022/01/12 00:45:42;;;;;;;4.72;1.35;;;30.20;71.60;;;;;;5088434;28;20373;-78
2022/01/12 00:48:10;;;;;;;5.75;1.40;;;30.20;69.30;;;;;;5087945;28;20437;-78
2022/01/12 00:50:38;;;;;;;4.43;1.45;;;30.20;69.10;;;;;;5088024;28;20377;-81
2022/01/12 00:53:05;;;;;;;5.05;1.63;;;30.30;67.00;;;;;;5088021;28;20416;-82
2022/01/12 00:55:33;;;;;;;3.97;1.20;;;30.00;69.60;;;;;;5088120;28;20713;-86
2022/01/12 00:58:00;;;;;;;3.90;1.30;;;29.80;69.10;;;;;;5088063;28;20836;-83
2022/01/12 01:00:28;;;;;;;4.60;1.42;;;29.70;70.00;;;;;;5087987;28;20360;-86
2022/01/12 01:02:56;;;;;;;9.10;1.60;;;29.70;70.00;;;;;;5087694;28;20408;-85
2022/01/12 01:05:26;;;;;;;7.73;1.53;;;29.70;71.10;;;;;;5087748;28;20374;-81
2022/01/12 01:07:54;;;;;;;6.20;1.35;;;29.00;72.50;;;;;;5087820;28;20890;-84
2022/01/12 01:10:46;;;;;;;6.03;1.63;;;28.30;76.60;;;;;;5087696;28;20377;-84
2022/01/12 01:13:15;;;;;;;8.75;1.80;;;28.10;76.00;;;;;;5087588;28;20471;-84
2022/01/12 01:26:39;;;;;;;7.07;1.67;;;27.90;79.40;;;;;;5087309;28;20372;-84
2022/01/12 01:29:06;;;;;;;6.32;1.85;;;28.20;77.00;;;;;;5087339;28;20387;-80
2022/01/12 01:31:34;;;;;;;4.90;1.60;;;28.20;82.40;;;;;;5086910;28;20368;-79
2022/01/12 01:34:09;;;;;;;7.75;1.70;;;27.80;84.70;;;;;;5087495;28;20395;-77
2022/01/12 01:36:43;;;;;;;6.25;1.92;;;27.60;86.80;;;;;;5088124;28;20429;-79
2022/01/12 01:39:13;;;;;;;5.45;1.80;;;27.20;90.00;;;;;;5066641;28;20394;-76
2022/01/12 01:41:45;;;;;;;7.15;1.70;;;27.00;90.10;;;;;;5074229;28;20411;-82
2022/01/12 01:54:48;;;;;;;4.15;1.60;;;26.60;92.30;;;;;;5094295;28;20454;-84
2022/01/12 01:57:16;;;;;;;4.15;1.70;;;26.50;93.40;;;;;;5087426;28;20380;-84
2022/01/12 01:59:45;;;;;;;4.53;1.60;;;26.50;93.50;;;;;;5087102;28;20392;-83
2022/01/12 02:02:13;;;;;;;5.35;1.70;;;26.50;94.70;;;;;;5098773;28;20406;-75
2022/01/12 02:04:41;;;;;;;4.32;1.42;;;26.50;94.10;;;;;;5086758;28;20368;-78
2022/01/12 02:07:08;;;;;;;5.15;1.30;;;26.70;95.30;;;;;;5093671;28;20371;-79
2022/01/12 02:09:35;;;;;;;4.22;1.00;;;27.00;92.80;;;;;;5107257;28;20396;-77
2022/01/12 02:12:02;;;;;;;3.70;1.37;;;27.40;92.20;;;;;;5089463;28;20874;-82
2022/01/12 02:14:29;;;;;;;4.57;1.30;;;27.50;92.10;;;;;;5086439;28;20407;-77
2022/01/12 02:17:03;;;;;;;3.95;1.20;;;27.70;92.70;;;;;;5086768;28;20441;-76
2022/01/12 02:19:48;;;;;;;4.38;1.27;;;27.90;92.00;;;;;;5086483;28;20404;-77
2022/01/12 02:36:20;;;;;;;3.53;1.30;;;30.00;80.60;;;;;;5089105;28;20377;-77
2022/01/12 02:41:33;;;;;;;4.82;1.50;;;29.60;81.20;;;;;;5086454;28;20419;-81
2022/01/12 02:54:50;;;;;;;8.63;1.50;;;29.10;84.50;;;;;;5054928;28;20391;-81
2022/01/12 02:57:19;;;;;;;10.40;2.10;;;29.50;82.60;;;;;;5085830;28;21176;-83
2022/01/12 03:02:38;;;;;;;3.40;1.15;;;30.30;80.20;;;;;;5087604;28;20483;-80
2022/01/12 03:07:38;;;;;;;4.97;1.40;;;29.30;83.10;;;;;;5069684;28;20393;-85
2022/01/12 03:10:11;;;;;;;8.70;1.67;;;29.00;83.90;;;;;;5069120;28;20374;-78
2022/01/12 03:12:39;;;;;;;4.50;1.30;;;28.80;84.60;;;;;;5065030;28;20413;-77
2022/01/12 03:15:07;;;;;;;5.28;1.42;;;28.60;85.70;;;;;;5068704;28;20480;-77
2022/01/12 03:17:34;;;;;;;8.77;1.63;;;28.70;85.10;;;;;;5069614;28;20378;-82
2022/01/12 03:20:03;;;;;;;5.57;1.40;;;28.50;85.10;;;;;;5068987;28;20386;-81
2022/01/12 03:22:30;;;;;;;3.05;1.00;;;28.40;86.20;;;;;;5068655;28;20402;-79
2022/01/12 03:24:57;;;;;;;5.65;1.33;;;28.40;85.90;;;;;;5068760;28;20466;-78
2022/01/12 03:27:26;;;;;;;9.52;1.60;;;28.40;86.20;;;;;;5068290;28;20386;-77
2022/01/12 03:29:56;;;;;;;7.65;1.50;;;28.10;90.70;;;;;;5068827;28;20382;-77
2022/01/12 03:32:36;;;;;;;10.23;1.53;;;27.50;92.50;;;;;;5067964;28;20404;-82
2022/01/12 04:05:26;;;;;;;9.30;1.67;;;24.30;99.90;;;;;;5089109;28;20455;-86
2022/01/12 04:10:38;;;;;;;6.13;1.42;;;24.30;99.90;;;;;;5087487;28;20513;-82
2022/01/12 04:13:05;;;;;;;6.03;1.50;;;24.20;99.90;;;;;;5086694;28;20423;-81
2022/01/12 04:15:32;;;;;;;7.10;1.67;;;24.00;99.90;;;;;;5085640;28;20435;-78
2022/01/12 04:17:59;;;;;;;8.90;1.83;;;23.80;99.90;;;;;;5088485;28;20908;-78
2022/01/12 04:20:26;;;;;;;4.57;1.40;;;23.60;99.90;;;;;;5088275;28;20384;-84
2022/01/12 04:25:38;;;;;;;4.03;1.30;;;23.40;99.90;;;;;;5087752;28;20735;-80
2022/01/12 04:28:06;;;;;;;4.07;1.42;;;23.40;99.90;;;;;;5088213;28;20855;-81
2022/01/12 04:30:33;;;;;;;5.68;1.50;;;23.50;99.90;;;;;;5088220;28;20377;-87
2022/01/12 04:33:00;;;;;;;2.88;1.00;;;23.60;99.90;;;;;;5087560;28;20384;-78
2022/01/12 04:35:32;;;;;;;1.75;1.00;;;23.60;99.90;;;;;;5087745;28;20380;-78
2022/01/12 04:37:59;;;;;;;1.58;0.90;;;23.50;99.90;;;;;;5087561;28;20392;-83
2022/01/12 04:40:26;;;;;;;1.05;0.80;;;23.60;99.90;;;;;;5086503;28;20395;-84
2022/01/12 04:42:54;;;;;;;1.70;0.80;;;23.60;99.90;;;;;;5088230;28;20404;-86
2022/01/12 04:50:24;;;;;;;2.50;0.80;;;23.80;99.90;;;;;;5088197;28;20850;-81
2022/01/12 04:52:51;;;;;;;1.42;0.60;;;24.00;99.90;;;;;;5087313;28;20376;-87
2022/01/12 04:55:19;;;;;;;0.77;0.52;;;24.20;99.90;;;;;;5087399;28;20937;-81
2022/01/12 04:57:46;;;;;;;2.08;0.60;;;24.40;99.90;;;;;;5087724;28;20376;-85
2022/01/12 05:00:16;;;;;;;0.77;0.50;;;24.70;99.90;;;;;;5087813;28;20391;-84
2022/01/12 05:13:42;;;;;;;3.15;1.60;;;25.40;99.90;;;;;;5086394;28;20418;-87
2022/01/12 05:16:12;;;;;;;3.65;1.90;;;25.10;99.90;;;;;;5086812;28;20383;-87
2022/01/12 05:18:41;;;;;;;4.72;2.15;;;24.80;99.90;;;;;;5086060;28;20412;-86
2022/01/12 05:21:09;;;;;;;6.00;2.30;;;24.60;99.90;;;;;;5085839;28;20405;-82
2022/01/12 05:23:37;;;;;;;5.53;2.30;;;24.50;99.90;;;;;;5085723;28;20448;-85
2022/01/12 05:26:05;;;;;;;7.15;2.20;;;24.50;99.90;;;;;;5085280;28;20446;-83
2022/01/12 05:28:32;;;;;;;7.45;1.90;;;24.80;99.90;;;;;;5086412;28;20380;-90
2022/01/12 05:31:01;;;;;;;2.92;1.60;;;25.10;99.90;;;;;;5084694;28;20379;-84
2022/01/12 05:33:28;;;;;;;3.03;1.02;;;25.40;99.90;;;;;;5086394;28;20384;-79
2022/01/12 05:35:58;;;;;;;4.30;1.10;;;25.40;99.90;;;;;;5086615;28;20396;-82
2022/01/12 05:38:26;;;;;;;2.80;0.90;;;25.30;99.90;;;;;;5082109;28;20408;-76
2022/01/12 05:40:57;;;;;;;1.50;0.60;;;25.20;99.90;;;;;;5085748;28;20918;-81
2022/01/12 05:43:27;;;;;;;4.78;0.82;;;25.10;99.90;;;;;;5086315;28;20390;-78
2022/01/12 05:45:56;;;;;;;4.10;0.88;;;24.70;99.90;;;;;;5086991;28;20364;-80
2022/01/12 05:51:09;;;;;;;4.65;0.85;;;25.00;99.90;;;;;;5086341;28;20387;-80
2022/01/12 05:53:36;;;;;;;1.52;0.73;;;25.00;99.90;;;;;;5087199;28;20422;-83
2022/01/12 05:56:03;;;;;;;2.20;0.82;;;25.00;99.90;;;;;;5087037;28;20396;-85
2022/01/12 05:58:30;;;;;;;3.00;0.80;;;24.90;99.90;;;;;;5086902;28;20380;-79
2022/01/12 06:00:57;;;;;;;4.55;0.90;;;24.60;99.90;;;;;;5086179;28;20388;-84
2022/01/12 06:03:24;;;;;;;1.92;0.65;;;24.40;99.90;;;;;;5087032;28;20424;-79
2022/01/12 06:05:51;;;;;;;2.25;0.70;;;24.20;99.90;;;;;;5085784;28;20377;-82
2022/01/12 06:08:18;;;;;;;1.20;0.60;;;23.70;99.90;;;;;;5086099;28;20441;-86
2022/01/12 06:10:45;;;;;;;2.90;0.70;;;23.50;99.90;;;;;;5086435;28;20373;-80
2022/01/12 06:13:12;;;;;;;3.10;1.33;;;23.20;99.90;;;;;;5085154;28;20390;-84
2022/01/12 06:15:38;;;;;;;2.35;1.15;;;23.10;99.90;;;;;;5076400;28;20441;-78
2022/01/12 06:18:05;;;;;;;24.55;17.63;;;22.90;99.90;;;;;;5086008;28;20433;-77
2022/01/12 06:20:33;;;;;;;2.10;1.20;;;22.80;99.90;;;;;;5085892;28;20380;-85
2022/01/12 06:23:00;;;;;;;3.33;1.17;;;22.60;99.90;;;;;;5085928;28;20400;-81
2022/01/12 06:25:27;;;;;;;4.40;1.23;;;22.40;99.90;;;;;;5086238;28;20392;-88
2022/01/12 06:27:58;;;;;;;5.32;1.50;;;22.10;99.90;;;;;;5087595;28;20876;-84
2022/01/12 06:32:54;;;;;;;5.85;1.60;;;21.60;99.90;;;;;;5087389;28;20391;-85
2022/01/12 06:35:21;;;;;;;3.17;1.25;;;21.50;99.90;;;;;;5086429;28;20462;-85
2022/01/12 06:37:49;;;;;;;5.55;1.80;;;21.40;99.90;;;;;;5087813;28;20396;-85
2022/01/12 06:40:18;;;;;;;4.28;1.65;;;21.40;99.90;;;;;;5089435;28;20373;-91
2022/01/12 06:42:46;;;;;;;4.53;1.55;;;21.40;99.90;;;;;;5090729;28;20400;-83
2022/01/12 06:45:14;;;;;;;3.65;1.40;;;21.40;99.90;;;;;;5090693;28;20450;-88
2022/01/12 06:47:41;;;;;;;4.53;1.40;;;21.50;99.90;;;;;;5090299;28;20381;-82
2022/01/12 06:50:08;;;;;;;3.53;1.47;;;21.40;99.90;;;;;;5093584;28;20440;-89
2022/01/12 06:52:35;;;;;;;4.45;1.50;;;21.40;99.90;;;;;;5088980;28;20395;-76
2022/01/12 06:55:02;;;;;;;5.05;1.92;;;21.60;99.90;;;;;;5091869;28;20385;-93
2022/01/12 06:57:31;;;;;;;7.13;3.70;;;21.70;99.90;;;;;;5090588;28;20424;-81
2022/01/12 06:59:58;;;;;;;7.43;4.23;;;21.90;99.90;;;;;;5088919;28;20397;-84
2022/01/12 07:02:25;;;;;;;8.80;3.70;;;22.10;99.90;;;;;;5089859;28;20404;-76
2022/01/12 07:04:52;;;;;;;4.60;1.60;;;22.40;99.90;;;;;;5089355;28;20377;-78
2022/01/12 07:07:19;;;;;;;4.10;1.40;;;22.60;99.90;;;;;;5089930;28;20752;-77
2022/01/12 07:09:46;;;;;;;5.05;1.40;;;22.80;99.90;;;;;;5090003;28;20376;-83
2022/01/12 07:12:16;;;;;;;2.67;1.00;;;23.00;99.90;;;;;;5089178;28;20456;-83
2022/01/12 07:14:43;;;;;;;4.07;1.27;;;23.10;99.90;;;;;;5090046;28;20419;-80
2022/01/12 07:17:12;;;;;;;4.20;1.52;;;23.10;99.90;;;;;;5088879;28;20392;-93
2022/01/12 07:19:39;;;;;;;4.47;1.30;;;23.20;99.90;;;;;;5089410;28;20854;-76
2022/01/12 07:22:06;;;;;;;2.72;1.17;;;23.20;99.90;;;;;;5089841;28;20424;-86
2022/01/12 07:24:33;;;;;;;2.42;0.98;;;23.20;99.90;;;;;;5090162;28;20388;-77
2022/01/12 07:27:00;;;;;;;3.15;1.27;;;23.10;99.90;;;;;;5090608;28;20360;-85
2022/01/12 07:29:27;;;;;;;2.78;1.30;;;23.00;99.90;;;;;;5091224;28;20394;-79
2022/01/12 07:31:54;;;;;;;4.30;1.40;;;23.10;99.90;;;;;;5090123;28;20377;-85
2022/01/12 07:34:21;;;;;;;3.53;1.10;;;23.10;99.90;;;;;;5089909;28;20396;-93
2022/01/12 07:36:48;;;;;;;3.03;1.00;;;23.10;99.90;;;;;;5097344;28;20412;-77
2022/01/12 07:39:15;;;;;;;4.72;1.10;;;23.30;99.90;;;;;;5095984;28;20446;-95
2022/01/12 07:41:43;;;;;;;3.50;1.00;;;23.30;99.90;;;;;;5090178;28;20416;-92
2022/01/12 07:44:10;;;;;;;3.08;1.00;;;23.30;99.90;;;;;;5090074;28;20456;-76
2022/01/12 07:46:37;;;;;;;3.03;0.90;;;23.40;99.90;;;;;;5089531;28;20870;-93
2022/01/12 07:49:04;;;;;;;2.47;1.02;;;23.40;99.90;;;;;;5089316;28;20372;-84
2022/01/12 07:51:31;;;;;;;3.30;0.90;;;23.40;99.90;;;;;;5090377;28;21080;-86
2022/01/12 07:53:58;;;;;;;2.20;0.90;;;23.30;99.90;;;;;;5092832;28;20717;-75
2022/01/12 07:56:25;;;;;;;4.70;1.20;;;23.10;99.90;;;;;;5093082;28;20430;-82
2022/01/12 07:58:52;;;;;;;2.38;1.10;;;22.90;99.90;;;;;;5091756;28;20437;-84
2022/01/12 08:01:19;;;;;;;2.60;1.10;;;22.80;99.90;;;;;;5088208;28;20782;-89
2022/01/12 08:03:46;;;;;;;3.50;1.20;;;22.70;99.90;;;;;;5088670;28;20388;-82
2022/01/12 08:06:12;;;;;;;2.03;1.10;;;22.50;99.90;;;;;;5089113;28;20456;-82
2022/01/12 08:08:39;;;;;;;2.50;1.20;;;22.40;99.90;;;;;;5088566;28;20813;-87
2022/01/12 08:11:06;;;;;;;1.75;1.10;;;22.30;99.90;;;;;;5088673;28;20381;-86
2022/01/12 08:13:33;;;;;;;3.88;1.20;;;22.00;99.90;;;;;;5089412;28;20396;-76
2022/01/12 08:16:01;;;;;;;4.45;1.23;;;21.80;99.90;;;;;;5087182;28;20399;-83
2022/01/12 08:18:28;;;;;;;3.70;1.27;;;21.30;99.90;;;;;;5088577;28;20477;-84
2022/01/12 08:20:54;;;;;;;2.45;1.15;;;21.10;99.90;;;;;;5088618;28;20463;-76
2022/01/12 08:23:21;;;;;;;4.57;1.40;;;20.90;99.90;;;;;;5088914;28;20394;-74
2022/01/12 08:25:48;;;;;;;4.72;1.73;;;20.80;99.90;;;;;;5088833;28;20376;-88
2022/01/12 08:28:15;;;;;;;7.60;2.05;;;20.70;99.90;;;;;;5088644;28;20395;-75
2022/01/12 08:30:42;;;;;;;4.95;2.15;;;20.70;99.90;;;;;;5085327;28;20382;-85
2022/01/12 08:33:11;;;;;;;6.97;1.90;;;20.60;99.90;;;;;;5068672;28;20378;-82
2022/01/12 08:35:38;;;;;;;3.77;1.50;;;20.60;99.90;;;;;;5074154;28;20384;-79
2022/01/12 08:38:05;;;;;;;4.53;1.77;;;20.50;99.90;;;;;;5088010;28;20811;-88
2022/01/12 08:40:32;;;;;;;5.68;2.10;;;20.50;99.90;;;;;;5088005;28;20442;-84
2022/01/12 08:42:59;;;;;;;3.70;1.80;;;20.60;99.90;;;;;;5088474;28;20398;-86
2022/01/12 08:45:26;;;;;;;4.43;2.03;;;20.50;99.90;;;;;;5087079;28;20376;-89
2022/01/12 08:47:53;;;;;;;5.90;2.70;;;20.50;99.90;;;;;;5087932;28;20829;-86
2022/01/12 08:50:20;;;;;;;4.15;2.30;;;20.50;99.90;;;;;;5088321;28;20493;-75
2022/01/12 08:52:48;;;;;;;5.13;2.42;;;20.50;99.90;;;;;;5088232;28;20458;-84
2022/01/12 08:55:19;;;;;;;6.68;3.05;;;20.40;99.90;;;;;;5088582;28;20376;-79
2022/01/12 08:57:46;;;;;;;5.20;2.50;;;20.50;99.90;;;;;;5088848;28;20382;-88
2022/01/12 09:00:14;;;;;;;10.20;4.55;;;20.40;99.90;;;;;;5087299;28;20381;-85
2022/01/12 09:02:41;;;;;;;13.23;5.32;;;20.40;99.90;;;;;;5088258;28;20472;-89
2022/01/12 09:05:11;;;;;;;13.20;4.75;;;20.40;99.90;;;;;;5088448;28;20455;-86
2022/01/12 09:07:39;;;;;;;7.88;3.30;;;20.40;99.90;;;;;;5088711;28;20425;-92
2022/01/12 09:10:07;;;;;;;4.10;2.40;;;20.40;99.90;;;;;;5088667;28;20625;-91
2022/01/12 09:12:36;;;;;;;12.52;3.95;;;20.30;99.90;;;;;;5087139;28;20387;-87
2022/01/12 09:15:08;;;;;;;7.57;3.33;;;20.30;99.90;;;;;;5087635;28;20804;-92
2022/01/12 09:17:35;;;;;;;6.88;3.50;;;20.30;99.90;;;;;;5087846;28;20372;-88
2022/01/12 09:20:05;;;;;;;10.43;3.60;;;20.30;99.90;;;;;;5086368;28;20415;-75
2022/01/12 09:22:33;;;;;;;13.15;4.00;;;20.30;99.90;;;;;;5087180;28;20503;-84
2022/01/12 09:25:00;;;;;;;11.13;3.00;;;20.30;99.90;;;;;;5087581;28;20418;-83
2022/01/12 09:27:27;;;;;;;9.13;2.80;;;20.30;99.90;;;;;;5087751;28;20391;-78
2022/01/12 09:29:54;;;;;;;4.90;2.22;;;20.30;99.90;;;;;;5087445;28;20863;-87
2022/01/12 09:32:21;;;;;;;8.43;2.60;;;20.30;99.90;;;;;;5087862;28;20455;-90
2022/01/12 09:34:48;;;;;;;10.47;2.80;;;20.30;99.90;;;;;;5094111;28;20371;-85
2022/01/12 09:37:15;;;;;;;17.90;5.40;;;20.30;99.90;;;;;;5095532;28;20902;-89
2022/01/12 09:39:42;;;;;;;7.03;2.90;;;20.30;99.90;;;;;;5091303;28;20381;-91
2022/01/12 09:42:09;;;;;;;5.78;2.30;;;20.30;99.90;;;;;;5087892;28;20411;-91
2022/01/12 09:44:43;;;;;;;5.28;2.10;;;20.20;99.90;;;;;;5087930;28;20487;-88
2022/01/12 09:47:10;;;;;;;6.33;2.37;;;20.20;99.90;;;;;;5088486;28;20676;-86
2022/01/12 09:49:37;;;;;;;8.50;2.90;;;20.20;99.90;;;;;;5087464;28;20406;-85
2022/01/12 09:52:05;;;;;;;11.45;2.65;;;20.20;99.90;;;;;;5087652;28;20376;-90
2022/01/12 09:54:32;;;;;;;7.85;2.67;;;20.20;99.90;;;;;;5086732;28;20380;-91
2022/01/12 09:56:59;;;;;;;5.73;2.67;;;20.20;99.90;;;;;;5086688;28;20392;-90
2022/01/12 09:59:27;;;;;;;6.68;2.30;;;20.10;99.90;;;;;;5086677;28;20376;-76
2022/01/12 10:01:54;;;;;;;9.68;2.80;;;20.10;99.90;;;;;;5085568;28;20403;-90
2022/01/12 10:04:25;;;;;;;9.73;2.85;;;20.10;99.90;;;;;;5086960;28;20392;-88
2022/01/12 10:06:59;;;;;;;7.22;2.55;;;20.10;99.90;;;;;;5086402;28;20388;-75
2022/01/12 10:09:32;;;;;;;8.05;2.83;;;20.10;99.90;;;;;;5086522;28;20457;-82
2022/01/12 10:12:01;;;;;;;7.13;2.90;;;20.10;99.90;;;;;;5084848;28;20394;-82
2022/01/12 10:14:49;;;;;;;8.32;2.80;;;20.10;99.90;;;;;;5085905;28;20862;-86
2022/01/12 10:17:29;;;;;;;8.90;2.85;;;20.10;99.90;;;;;;5085771;28;20388;-84
2022/01/12 10:20:07;;;;;;;5.88;2.83;;;20.00;99.90;;;;;;5086665;28;20432;-85
2022/01/12 10:22:34;;;;;;;6.78;3.00;;;20.00;99.90;;;;;;5086769;28;20757;-75
2022/01/12 10:25:13;;;;;;;7.22;3.50;;;20.00;99.90;;;;;;5086653;28;20391;-85
2022/01/12 10:27:40;;;;;;;7.90;3.63;;;19.90;99.90;;;;;;5086393;28;20462;-86
2022/01/12 10:30:08;;;;;;;6.47;3.50;;;20.00;99.90;;;;;;5086575;28;20373;-84
2022/01/12 10:32:35;;;;;;;7.63;3.40;;;20.00;99.90;;;;;;5086115;28;20384;-74
2022/01/12 10:35:02;;;;;;;7.38;3.60;;;20.00;99.90;;;;;;5086507;28;20421;-84
2022/01/12 10:37:30;;;;;;;7.70;3.30;;;20.00;99.90;;;;;;5086457;28;20392;-79
2022/01/12 10:39:58;;;;;;;6.60;3.30;;;20.00;99.90;;;;;;5086144;28;20774;-83
2022/01/12 10:42:27;;;;;;;8.27;3.30;;;20.00;99.90;;;;;;5086078;28;20396;-76
2022/01/12 10:45:04;;;;;;;7.68;3.20;;;20.00;99.90;;;;;;5086087;28;20387;-84
2022/01/12 10:47:32;;;;;;;6.00;3.20;;;20.00;99.90;;;;;;5086300;28;20453;-84
2022/01/12 10:50:08;;;;;;;8.35;3.30;;;20.00;99.90;;;;;;5085842;28;20463;-79
2022/01/12 10:52:47;;;;;;;8.50;3.30;;;19.90;99.90;;;;;;5086403;28;20379;-85
2022/01/12 10:55:15;;;;;;;5.93;3.20;;;19.90;99.90;;;;;;5086240;28;20443;-84
2022/01/12 10:57:44;;;;;;;6.43;3.20;;;19.90;99.90;;;;;;5085130;28;20392;-81
2022/01/12 11:00:20;;;;;;;9.23;3.72;;;19.90;99.90;;;;;;5083843;28;20805;-82
2022/01/12 11:02:55;;;;;;;10.13;3.90;;;19.90;99.90;;;;;;5085858;28;20461;-86
2022/01/12 11:05:24;;;;;;;9.57;4.37;;;20.00;99.90;;;;;;5085573;28;20385;-84
2022/01/12 11:07:53;;;;;;;9.07;3.40;;;20.00;99.90;;;;;;5085344;28;20403;-83
2022/01/12 11:10:20;;;;;;;8.43;3.97;;;20.00;99.90;;;;;;5085613;28;20422;-84
2022/01/12 11:12:49;;;;;;;13.40;4.07;;;20.00;99.90;;;;;;5085817;28;20479;-78
2022/01/12 11:15:19;;;;;;;8.80;3.70;;;20.00;99.90;;;;;;5076075;28;20479;-84
2022/01/12 11:17:48;;;;;;;12.98;3.38;;;20.00;99.90;;;;;;5086100;28;20380;-84
2022/01/12 11:20:33;;;;;;;8.95;3.35;;;19.90;99.90;;;;;;5086267;28;20386;-84
2022/01/12 11:23:12;;;;;;;10.95;3.75;;;19.80;99.90;;;;;;5086828;28;20397;-76
2022/01/12 11:25:44;;;;;;;9.35;3.38;;;19.80;99.90;;;;;;5089701;28;20445;-83
2022/01/12 11:28:11;;;;;;;9.47;3.70;;;19.80;99.90;;;;;;5088779;28;20392;-84
2022/01/12 11:30:44;;;;;;;12.07;3.80;;;19.80;99.90;;;;;;5087457;28;21325;-79
2022/01/12 11:33:13;;;;;;;11.27;3.70;;;19.80;99.90;;;;;;5089745;28;20844;-79
2022/01/12 11:35:43;;;;;;;10.00;3.38;;;19.80;99.90;;;;;;5089371;28;20380;-83
2022/01/12 11:38:22;;;;;;;10.35;3.42;;;19.80;99.90;;;;;;5088719;28;20396;-85
2022/01/12 11:40:50;;;;;;;11.23;3.30;;;19.70;99.90;;;;;;5088665;28;20446;-83
2022/01/12 11:43:47;;;;;;;11.80;3.75;;;19.70;99.90;;;;;;5089476;28;20407;-83
2022/01/12 11:46:25;;;;;;;11.00;3.40;;;19.80;99.90;;;;;;5054144;28;20387;-85
2022/01/12 11:48:58;;;;;;;13.98;3.40;;;19.70;99.90;;;;;;5089582;28;20807;-84
2022/01/12 11:51:44;;;;;;;8.88;3.17;;;19.70;99.90;;;;;;5088881;28;20388;-81
2022/01/12 11:54:16;;;;;;;10.07;3.40;;;19.70;99.90;;;;;;5088990;28;20372;-86
2022/01/12 11:56:58;;;;;;;9.32;3.13;;;19.70;99.90;;;;;;5088206;28;20421;-84
2022/01/12 11:59:28;;;;;;;9.17;3.10;;;19.70;99.90;;;;;;5088101;28;20789;-72
2022/01/12 12:02:16;;;;;;;11.32;3.47;;;19.70;99.90;;;;;;5088519;28;20401;-81
2022/01/12 12:05:12;;;;;;;9.75;2.97;;;19.70;99.90;;;;;;5089120;28;20368;-82
2022/01/12 12:07:50;;;;;;;8.68;3.00;;;19.70;99.90;;;;;;5078247;28;20396;-78
2022/01/12 12:10:22;;;;;;;9.68;3.25;;;19.60;99.90;;;;;;5088715;28;20844;-84
2022/01/12 12:12:55;;;;;;;8.95;3.42;;;19.60;99.90;;;;;;5088598;28;20372;-82
2022/01/12 12:15:23;;;;;;;9.88;3.63;;;19.60;99.90;;;;;;5087629;28;20384;-84
2022/01/12 12:17:52;;;;;;;9.75;3.45;;;19.60;99.90;;;;;;5088426;28;20718;-83
2022/01/12 12:20:21;;;;;;;11.13;3.47;;;19.60;99.90;;;;;;5088571;28;20376;-82
2022/01/12 12:22:50;;;;;;;13.90;4.30;;;19.60;99.90;;;;;;5087243;28;20668;-85
2022/01/12 12:25:25;;;;;;;16.60;4.68;;;19.60;99.90;;;;;;5086703;28;20746;-77
2022/01/12 12:27:58;;;;;;;12.10;4.25;;;19.60;99.90;;;;;;5075771;28;20670;-86
2022/01/12 12:30:27;;;;;;;9.57;4.35;;;19.60;99.90;;;;;;5087729;28;21001;-85
2022/01/12 12:33:13;;;;;;;10.93;3.70;;;19.60;99.90;;;;;;5088465;28;20373;-83
2022/01/12 12:35:42;;;;;;;8.55;3.70;;;19.60;99.90;;;;;;5087718;28;20455;-84
2022/01/12 12:38:15;;;;;;;8.15;3.58;;;19.60;99.90;;;;;;5088240;28;20446;-87
2022/01/12 12:40:45;;;;;;;7.82;3.40;;;19.70;99.90;;;;;;5088784;28;20754;-86
2022/01/12 12:43:17;;;;;;;9.95;3.75;;;19.80;99.90;;;;;;5088403;28;20439;-84
2022/01/12 12:45:51;;;;;;;4.50;2.50;;;19.80;99.90;;;;;;5088136;28;20388;-76
2022/01/12 12:48:21;;;;;;;5.05;2.63;;;19.80;99.90;;;;;;5088410;28;20409;-85
2022/01/12 12:50:58;;;;;;;6.20;2.75;;;19.80;99.90;;;;;;5087815;28;20911;-85
2022/01/12 12:53:33;;;;;;;7.30;3.00;;;19.80;99.90;;;;;;5088585;28;20384;-86
2022/01/12 12:56:01;;;;;;;7.80;3.28;;;19.80;99.90;;;;;;5088443;28;20383;-85
2022/01/12 12:58:28;;;;;;;8.63;3.30;;;19.80;99.90;;;;;;5087919;28;20732;-75
2022/01/12 13:01:07;;;;;;;7.63;3.13;;;19.90;99.90;;;;;;5087954;28;20395;-85
2022/01/12 13:03:36;;;;;;;9.43;4.03;;;19.90;99.90;;;;;;5087887;28;20952;-85
2022/01/12 13:06:04;;;;;;;7.65;3.90;;;19.80;99.90;;;;;;5088016;28;20369;-85
2022/01/12 13:08:31;;;;;;;10.18;5.00;;;19.80;99.90;;;;;;5087846;28;20403;-79
2022/01/12 13:11:10;;;;;;;9.03;4.30;;;19.80;99.90;;;;;;5087963;28;20372;-84
2022/01/12 13:13:36;;;;;;;11.82;4.22;;;19.90;99.90;;;;;;5088042;28;20364;-84
2022/01/12 13:16:07;;;;;;;10.43;4.73;;;19.90;99.90;;;;;;5087433;28;20395;-85
2022/01/12 13:18:39;;;;;;;9.38;4.45;;;19.80;99.90;;;;;;5087993;28;20459;-85
2022/01/12 13:21:07;;;;;;;9.73;4.13;;;19.80;99.90;;;;;;5087747;28;20459;-84
2022/01/12 13:23:41;;;;;;;11.25;4.00;;;19.80;99.90;;;;;;5086444;28;20396;-86
2022/01/12 13:26:12;;;;;;;9.23;4.00;;;19.80;99.90;;;;;;5087758;28;20373;-73
2022/01/12 13:28:41;;;;;;;10.63;3.92;;;19.90;99.90;;;;;;5087560;28;20848;-83
2022/01/12 13:31:12;;;;;;;9.93;3.80;;;19.90;99.90;;;;;;5086881;28;20872;-84
2022/01/12 13:33:40;;;;;;;11.50;4.50;;;19.90;99.90;;;;;;5087552;28;20775;-73
2022/01/12 13:36:24;;;;;;;10.07;4.20;;;19.90;99.90;;;;;;5087524;28;20373;-83
2022/01/12 13:38:59;;;;;;;10.88;4.50;;;19.80;99.90;;;;;;5070713;28;20402;-85
2022/01/12 13:41:30;;;;;;;10.73;4.40;;;19.80;99.90;;;;;;5066487;28;20404;-85
2022/01/12 13:44:01;;;;;;;11.07;5.00;;;19.90;99.90;;;;;;5085146;28;20400;-84
2022/01/12 13:46:44;;;;;;;6.47;3.80;;;19.90;99.90;;;;;;5069757;28;20455;-84
2022/01/12 13:51:53;;;;;;;5.60;3.45;;;19.90;99.90;;;;;;5087139;28;20732;-83
2022/01/12 13:54:20;;;;;;;6.45;3.70;;;19.60;99.90;;;;;;5047776;28;20370;-85
2022/01/12 13:56:51;;;;;;;5.05;3.28;;;19.60;99.90;;;;;;5067101;28;20382;-74
2022/01/12 13:59:19;;;;;;;5.50;3.47;;;19.60;99.90;;;;;;5082568;28;20401;-84
2022/01/12 14:01:48;;;;;;;6.22;4.10;;;19.50;99.90;;;;;;5065267;28;20390;-76
2022/01/12 14:04:29;;;;;;;6.17;4.10;;;19.50;99.90;;;;;;5083703;28;20395;-73
2022/01/12 14:07:01;;;;;;;7.53;3.80;;;19.50;99.90;;;;;;5066861;28;20382;-80
2022/01/12 14:09:41;;;;;;;5.78;3.40;;;19.50;99.90;;;;;;5069584;28;20882;-83
2022/01/12 14:12:09;;;;;;;7.18;4.40;;;19.50;99.90;;;;;;5082126;28;20380;-74
2022/01/12 14:14:51;;;;;;;4.93;3.80;;;19.50;99.90;;;;;;5065936;28;20386;-85
2022/01/12 14:17:42;;;;;;;6.57;3.50;;;19.60;99.90;;;;;;5066192;28;20382;-78
2022/01/12 14:20:21;;;;;;;5.20;2.92;;;19.70;99.90;;;;;;5062841;28;20375;-84
2022/01/12 14:22:50;;;;;;;6.77;3.90;;;19.50;99.90;;;;;;5057684;28;20470;-74
2022/01/12 14:25:20;;;;;;;6.00;3.65;;;19.40;99.90;;;;;;5086628;28;20887;-76
2022/01/12 14:27:53;;;;;;;6.10;3.50;;;19.50;99.90;;;;;;5086483;28;20392;-81
2022/01/12 14:30:21;;;;;;;6.05;3.20;;;19.50;99.90;;;;;;5069459;28;20382;-84
2022/01/12 14:32:50;;;;;;;4.75;2.90;;;19.40;99.90;;;;;;5068438;28;20409;-85
2022/01/12 14:35:21;;;;;;;5.97;2.90;;;19.50;99.90;;;;;;5086881;28;20386;-85
2022/01/12 14:37:52;;;;;;;5.32;3.10;;;19.50;99.90;;;;;;5084815;28;20425;-74
2022/01/12 14:40:20;;;;;;;5.00;2.97;;;19.50;99.90;;;;;;5086524;28;20425;-84
2022/01/12 14:42:57;;;;;;;5.25;3.20;;;19.50;99.90;;;;;;5084645;28;20914;-85
2022/01/12 14:45:29;;;;;;;4.20;3.30;;;19.50;99.90;;;;;;5048616;28;20432;-84
2022/01/12 14:47:59;;;;;;;5.10;3.50;;;19.50;99.90;;;;;;5054277;28;20397;-82
2022/01/12 14:50:27;;;;;;;4.60;3.17;;;19.50;99.90;;;;;;5086390;28;20365;-83
2022/01/12 14:52:55;;;;;;;5.47;3.10;;;19.60;99.90;;;;;;5056682;28;20484;-81
2022/01/12 14:55:24;;;;;;;5.53;3.50;;;19.50;99.90;;;;;;5082587;28;20521;-80
2022/01/12 14:57:52;;;;;;;5.60;3.47;;;19.50;99.90;;;;;;5047184;28;20412;-83
2022/01/12 15:00:26;;;;;;;5.37;3.30;;;19.50;99.90;;;;;;5050410;28;21108;-82